createdAt,value
2018-11-21T00:00:23.545Z,59.91
2018-11-21T00:01:27.626Z,59.91
2018-11-21T00:02:31.774Z,59.97
2018-11-21T00:03:35.837Z,60.02
2018-11-21T00:04:39.845Z,60.04
2018-11-21T00:05:43.911Z,60.07
2018-11-21T00:06:47.923Z,60.14
2018-11-21T00:07:52.040Z,60.18
2018-11-21T00:09:59.543Z,60.29
2018-11-21T00:11:03.585Z,60.32
2018-11-21T00:12:07.607Z,60.36
2018-11-21T00:13:11.641Z,60.38
2018-11-21T00:14:15.664Z,60.40
2018-11-21T00:15:19.645Z,60.45
2018-11-21T00:16:24.048Z,60.50
2018-11-21T00:17:28.028Z,60.51
2018-11-21T00:18:32.069Z,60.51
2018-11-21T00:19:36.064Z,60.51
2018-11-21T00:20:40.400Z,60.52
2018-11-21T00:21:44.824Z,60.53
2018-11-21T00:22:48.859Z,60.56
2018-11-21T00:23:52.885Z,60.55
2018-11-21T00:24:57.133Z,60.59
2018-11-21T00:26:01.089Z,60.56
2018-11-21T00:27:05.151Z,60.56
2018-11-21T00:28:09.172Z,60.55
2018-11-21T00:29:13.160Z,60.57
2018-11-21T00:30:17.295Z,60.58
2018-11-21T00:31:21.374Z,60.60
2018-11-21T00:32:26.388Z,60.66
2018-11-21T00:33:30.530Z,60.67
2018-11-21T00:34:34.558Z,60.67
2018-11-21T00:35:38.582Z,60.71
2018-11-21T00:36:42.721Z,60.73
2018-11-21T00:37:47.115Z,60.77
2018-11-21T00:38:51.216Z,60.76
2018-11-21T00:39:55.388Z,60.79
2018-11-21T00:40:59.441Z,60.79
2018-11-21T00:42:03.806Z,60.82
2018-11-21T00:43:07.840Z,60.84
2018-11-21T00:44:13.975Z,60.85
2018-11-21T00:45:16.251Z,60.89
2018-11-21T00:46:20.344Z,60.92
2018-11-21T00:47:24.360Z,60.92
2018-11-21T00:48:28.425Z,60.95
2018-11-21T00:49:32.480Z,60.94
2018-11-21T00:50:36.700Z,60.97
2018-11-21T00:51:41.208Z,60.98
2018-11-21T00:52:45.351Z,60.98
2018-11-21T00:53:49.452Z,60.98
2018-11-21T00:54:53.509Z,60.98
2018-11-21T00:55:57.457Z,61.00
2018-11-21T00:57:01.442Z,61.03
2018-11-21T00:58:05.629Z,61.05
2018-11-21T00:59:09.769Z,61.04
2018-11-21T01:00:13.792Z,61.08
2018-11-21T01:01:18.145Z,61.13
2018-11-21T01:02:22.335Z,61.16
2018-11-21T01:03:26.281Z,61.20
2018-11-21T01:04:30.618Z,61.24
2018-11-21T01:05:34.655Z,61.28
2018-11-21T01:06:38.700Z,61.31
2018-11-21T01:07:42.749Z,61.31
2018-11-21T01:08:47.046Z,61.33
2018-11-21T01:09:51.425Z,61.39
2018-11-21T01:10:55.444Z,61.41
2018-11-21T01:11:59.470Z,61.42
2018-11-21T01:13:03.745Z,61.43
2018-11-21T01:14:07.809Z,61.45
2018-11-21T01:15:11.943Z,61.45
2018-11-21T01:16:16.290Z,61.46
2018-11-21T01:17:20.419Z,61.50
2018-11-21T01:18:24.866Z,61.55
2018-11-21T01:19:28.996Z,61.54
2018-11-21T01:20:33.096Z,61.56
2018-11-21T01:21:37.188Z,61.60
2018-11-21T01:22:41.305Z,61.60
2018-11-21T01:23:45.343Z,61.64
2018-11-21T01:24:49.375Z,61.65
2018-11-21T01:25:53.423Z,61.66
2018-11-21T01:26:57.884Z,61.69
2018-11-21T01:28:02.278Z,61.72
2018-11-21T01:29:06.383Z,61.75
2018-11-21T01:30:10.501Z,61.74
2018-11-21T01:31:14.586Z,61.75
2018-11-21T01:32:18.606Z,61.75
2018-11-21T01:33:22.691Z,61.77
2018-11-21T01:34:26.701Z,61.82
2018-11-21T01:35:30.725Z,61.88
2018-11-21T01:36:35.521Z,61.90
2018-11-21T01:37:39.532Z,61.90
2018-11-21T01:38:43.587Z,61.88
2018-11-21T01:39:47.623Z,61.89
2018-11-21T01:40:51.658Z,61.91
2018-11-21T01:41:55.853Z,61.97
2018-11-21T01:42:59.883Z,62.00
2018-11-21T01:44:03.996Z,62.01
2018-11-21T01:45:08.278Z,62.04
2018-11-21T01:46:12.264Z,62.06
2018-11-21T01:47:16.343Z,62.06
2018-11-21T01:48:20.351Z,62.08
2018-11-21T01:49:24.856Z,62.09
2018-11-21T01:50:29.247Z,62.12
2018-11-21T01:51:33.729Z,62.12
2018-11-21T01:52:37.784Z,62.14
2018-11-21T01:53:41.922Z,62.13
2018-11-21T01:54:46.005Z,62.15
2018-11-21T01:55:50.049Z,62.17
2018-11-21T01:56:54.106Z,62.16
2018-11-21T01:57:58.287Z,62.17
2018-11-21T01:59:02.256Z,62.22
2018-11-21T02:00:08.347Z,62.26
2018-11-21T02:01:12.365Z,62.29
2018-11-21T02:02:16.653Z,62.30
2018-11-21T02:03:21.075Z,62.30
2018-11-21T02:04:25.163Z,62.33
2018-11-21T02:05:29.412Z,62.35
2018-11-21T02:06:33.560Z,62.36
2018-11-21T02:07:37.695Z,62.36
2018-11-21T02:08:42.052Z,62.37
2018-11-21T02:09:46.071Z,62.37
2018-11-21T02:10:50.141Z,62.37
2018-11-21T02:11:54.196Z,62.41
2018-11-21T02:12:58.286Z,62.44
2018-11-21T02:14:02.760Z,62.47
2018-11-21T02:15:06.915Z,62.49
2018-11-21T02:16:10.927Z,62.48
2018-11-21T02:17:15.003Z,62.52
2018-11-21T02:18:19.005Z,62.53
2018-11-21T02:19:23.097Z,62.54
2018-11-21T02:20:27.102Z,62.56
2018-11-21T02:21:31.146Z,62.55
2018-11-21T02:22:35.176Z,62.57
2018-11-21T02:23:39.464Z,62.60
2018-11-21T02:24:43.538Z,62.62
2018-11-21T02:25:47.551Z,62.65
2018-11-21T02:26:51.590Z,62.69
2018-11-21T02:27:55.633Z,62.69
2018-11-21T02:28:59.726Z,62.67
2018-11-21T02:30:03.906Z,62.70
2018-11-21T02:31:08.019Z,62.71
2018-11-21T02:32:12.324Z,62.76
2018-11-21T02:33:16.363Z,62.82
2018-11-21T02:34:20.446Z,62.82
2018-11-21T02:35:24.515Z,62.83
2018-11-21T02:36:28.621Z,62.81
2018-11-21T02:37:32.772Z,62.82
2018-11-21T02:38:36.812Z,62.87
2018-11-21T02:39:40.870Z,62.91
2018-11-21T02:40:44.893Z,62.94
2018-11-21T02:41:49.051Z,62.94
2018-11-21T02:42:53.043Z,62.95
2018-11-21T02:43:57.089Z,62.99
2018-11-21T02:45:01.100Z,62.99
2018-11-21T02:46:05.606Z,63.04
2018-11-21T02:47:09.967Z,63.04
2018-11-21T02:48:14.013Z,63.05
2018-11-21T02:49:18.529Z,63.09
2018-11-21T02:50:22.609Z,63.12
2018-11-21T02:51:26.662Z,63.10
2018-11-21T02:52:30.832Z,63.11
2018-11-21T02:53:35.358Z,63.18
2018-11-21T02:54:39.436Z,63.22
2018-11-21T02:55:43.480Z,63.24
2018-11-21T02:57:19.756Z,63.24
2018-11-21T02:58:23.840Z,63.26
2018-11-21T02:59:27.944Z,63.25
2018-11-21T03:00:32.009Z,63.27
2018-11-21T03:01:36.023Z,63.33
2018-11-21T03:02:40.172Z,63.38
2018-11-21T03:03:44.529Z,63.40
2018-11-21T03:04:48.564Z,63.43
2018-11-21T03:05:53.006Z,63.44
2018-11-21T03:06:57.123Z,63.44
2018-11-21T03:08:01.923Z,63.43
2018-11-21T03:09:07.595Z,63.44
2018-11-21T03:10:11.762Z,63.45
2018-11-21T03:11:16.290Z,63.44
2018-11-21T03:12:20.299Z,63.46
2018-11-21T03:13:28.409Z,63.47
2018-11-21T03:14:28.464Z,63.50
2018-11-21T03:15:32.577Z,63.52
2018-11-21T03:16:36.647Z,63.53
2018-11-21T03:17:40.743Z,63.54
2018-11-21T03:18:45.119Z,63.56
2018-11-21T03:19:49.159Z,63.57
2018-11-21T03:20:53.517Z,63.57
2018-11-21T03:21:57.618Z,63.56
2018-11-21T03:23:01.679Z,63.60
2018-11-21T03:24:05.951Z,63.64
2018-11-21T03:25:10.399Z,63.64
2018-11-21T03:26:14.467Z,63.66
2018-11-21T03:27:18.575Z,63.68
2018-11-21T03:28:22.663Z,63.71
2018-11-21T03:29:26.765Z,63.74
2018-11-21T03:30:31.197Z,63.76
2018-11-21T03:31:35.314Z,63.79
2018-11-21T03:32:39.998Z,63.84
2018-11-21T03:33:44.545Z,63.87
2018-11-21T03:34:48.511Z,63.86
2018-11-21T03:35:52.603Z,63.87
2018-11-21T03:36:56.737Z,63.85
2018-11-21T03:38:01.655Z,63.85
2018-11-21T03:39:09.315Z,63.85
2018-11-21T03:40:13.526Z,63.84
2018-11-21T03:41:17.702Z,63.85
2018-11-21T03:42:21.770Z,63.87
2018-11-21T03:43:25.800Z,63.88
2018-11-21T03:44:29.914Z,63.93
2018-11-21T03:45:33.930Z,63.94
2018-11-21T03:46:38.097Z,63.93
2018-11-21T03:47:42.239Z,63.96
2018-11-21T03:48:46.622Z,63.93
2018-11-21T03:49:50.992Z,63.96
2018-11-21T03:50:55.047Z,64.02
2018-11-21T03:51:59.399Z,64.08
2018-11-21T03:53:03.445Z,64.10
2018-11-21T03:54:07.685Z,64.12
2018-11-21T03:55:12.119Z,64.17
2018-11-21T03:56:16.114Z,64.20
2018-11-21T03:57:20.220Z,64.21
2018-11-21T03:58:24.426Z,64.24
2018-11-21T03:59:28.294Z,64.27
2018-11-21T04:00:32.791Z,64.32
2018-11-21T04:01:36.878Z,64.36
2018-11-21T04:02:41.333Z,64.37
2018-11-21T04:03:45.563Z,64.40
2018-11-21T04:04:49.661Z,64.43
2018-11-21T04:05:53.688Z,64.44
2018-11-21T04:06:57.787Z,64.46
2018-11-21T04:08:01.782Z,64.43
2018-11-21T04:09:10.876Z,64.44
2018-11-21T04:10:15.246Z,64.45
2018-11-21T04:11:19.609Z,64.47
2018-11-21T04:12:24.045Z,64.48
2018-11-21T04:13:28.065Z,64.47
2018-11-21T04:14:32.103Z,64.47
2018-11-21T04:15:36.140Z,64.46
2018-11-21T04:16:40.136Z,64.47
2018-11-21T04:17:44.679Z,64.52
2018-11-21T04:18:52.987Z,64.54
2018-11-21T04:19:57.439Z,64.58
2018-11-21T04:21:01.481Z,64.59
2018-11-21T04:22:05.534Z,64.61
2018-11-21T04:23:09.553Z,64.63
2018-11-21T04:24:13.583Z,64.64
2018-11-21T04:25:17.909Z,64.69
2018-11-21T04:26:22.319Z,64.72
2018-11-21T04:27:26.343Z,64.75
2018-11-21T04:28:30.453Z,64.75
2018-11-21T04:29:34.867Z,64.80
2018-11-21T04:30:38.861Z,64.89
2018-11-21T04:31:43.219Z,64.95
2018-11-21T04:32:47.285Z,65.05
2018-11-21T04:33:51.373Z,65.15
2018-11-21T04:34:55.405Z,65.24
2018-11-21T04:35:59.831Z,65.31
2018-11-21T04:37:03.944Z,65.39
2018-11-21T04:38:07.958Z,65.42
2018-11-21T04:39:12.645Z,65.42
2018-11-21T04:40:16.694Z,65.39
2018-11-21T04:41:20.830Z,65.45
2018-11-21T04:42:24.881Z,65.50
2018-11-21T04:43:29.277Z,65.52
2018-11-21T04:44:33.321Z,65.50
2018-11-21T04:45:37.364Z,65.49
2018-11-21T04:46:41.834Z,65.49
2018-11-21T04:47:45.747Z,65.47
2018-11-21T04:48:49.846Z,65.48
2018-11-21T04:49:54.277Z,65.49
2018-11-21T04:50:58.730Z,65.49
2018-11-21T04:52:03.091Z,65.55
2018-11-21T04:53:07.140Z,65.57
2018-11-21T04:54:13.840Z,65.59
2018-11-21T04:55:15.236Z,65.62
2018-11-21T04:56:19.525Z,65.65
2018-11-21T04:57:23.552Z,65.65
2018-11-21T04:58:27.585Z,65.66
2018-11-21T04:59:31.613Z,65.71
2018-11-21T05:00:35.911Z,65.75
2018-11-21T05:01:43.339Z,65.78
2018-11-21T05:02:44.347Z,65.84
2018-11-21T05:03:48.413Z,65.92
2018-11-21T05:04:52.507Z,66.00
2018-11-21T05:05:58.543Z,66.04
2018-11-21T05:07:00.841Z,66.06
2018-11-21T05:08:04.897Z,66.12
2018-11-21T05:09:10.519Z,66.13
2018-11-21T05:10:14.571Z,66.12
2018-11-21T05:11:18.583Z,66.13
2018-11-21T05:12:22.616Z,66.17
2018-11-21T05:13:26.707Z,66.20
2018-11-21T05:14:30.830Z,66.27
2018-11-21T05:15:34.932Z,66.30
2018-11-21T05:16:39.338Z,66.33
2018-11-21T05:17:43.487Z,66.30
2018-11-21T05:18:47.499Z,66.36
2018-11-21T05:19:51.686Z,66.43
2018-11-21T05:20:55.696Z,66.51
2018-11-21T05:22:00.133Z,66.52
2018-11-21T05:23:04.197Z,66.53
2018-11-21T05:24:08.602Z,66.56
2018-11-21T05:25:12.563Z,66.55
2018-11-21T05:26:16.662Z,66.59
2018-11-21T05:27:21.182Z,66.62
2018-11-21T05:28:25.226Z,66.66
2018-11-21T05:29:29.262Z,66.71
2018-11-21T05:30:33.311Z,66.72
2018-11-21T05:31:37.451Z,66.75
2018-11-21T05:32:41.505Z,66.74
2018-11-21T05:33:45.534Z,66.76
2018-11-21T05:34:49.637Z,66.74
2018-11-21T05:35:53.682Z,66.76
2018-11-21T05:36:57.819Z,66.79
2018-11-21T05:38:02.225Z,66.84
2018-11-21T05:39:09.425Z,66.89
2018-11-21T05:40:13.453Z,66.92
2018-11-21T05:41:17.573Z,66.96
2018-11-21T05:42:21.765Z,66.92
2018-11-21T05:43:25.869Z,66.96
2018-11-21T05:44:31.487Z,66.98
2018-11-21T05:45:34.260Z,67.03
2018-11-21T05:46:38.510Z,67.06
2018-11-21T05:47:42.573Z,67.10
2018-11-21T05:48:47.003Z,67.08
2018-11-21T05:49:51.437Z,67.09
2018-11-21T05:50:55.888Z,67.08
2018-11-21T05:52:00.569Z,67.14
2018-11-21T05:53:04.756Z,67.14
2018-11-21T05:54:08.750Z,67.26
2018-11-21T05:55:13.179Z,67.31
2018-11-21T05:56:17.227Z,67.38
2018-11-21T05:57:21.369Z,67.38
2018-11-21T05:58:25.481Z,67.38
2018-11-21T05:59:29.831Z,67.35
2018-11-21T06:00:33.947Z,67.38
2018-11-21T06:01:38.047Z,67.37
2018-11-21T06:02:42.167Z,67.36
2018-11-21T06:03:46.265Z,67.34
2018-11-21T06:04:50.368Z,67.35
2018-11-21T06:05:54.427Z,67.35
2018-11-21T06:06:58.604Z,67.35
2018-11-21T06:08:02.858Z,67.34
2018-11-21T06:09:10.306Z,67.35
2018-11-21T06:10:15.035Z,67.33
2018-11-21T06:11:19.121Z,67.30
2018-11-21T06:12:23.136Z,67.30
2018-11-21T06:13:27.263Z,67.29
2018-11-21T06:14:31.316Z,67.34
2018-11-21T06:15:35.375Z,67.34
2018-11-21T06:16:39.442Z,67.35
2018-11-21T06:17:48.039Z,67.39
2018-11-21T06:18:47.864Z,67.40
2018-11-21T06:19:52.054Z,67.49
2018-11-21T06:20:58.782Z,67.49
2018-11-21T06:22:00.477Z,67.52
2018-11-21T06:23:04.470Z,67.48
2018-11-21T06:24:08.609Z,67.56
2018-11-21T06:25:13.228Z,67.66
2018-11-21T06:26:17.231Z,67.64
2018-11-21T06:27:21.235Z,67.66
2018-11-21T06:28:25.349Z,67.70
2018-11-21T06:29:29.893Z,67.74
2018-11-21T06:30:34.256Z,67.76
2018-11-21T06:31:38.419Z,67.83
2018-11-21T06:32:42.476Z,67.84
2018-11-21T06:33:46.538Z,67.84
2018-11-21T06:34:50.562Z,67.84
2018-11-21T06:35:54.628Z,67.84
2018-11-21T06:36:58.769Z,67.81
2018-11-21T06:38:03.271Z,67.86
2018-11-21T06:39:07.785Z,67.97
2018-11-21T06:40:13.720Z,68.05
2018-11-21T06:41:17.745Z,68.05
2018-11-21T06:42:21.830Z,68.08
2018-11-21T06:43:25.888Z,68.09
2018-11-21T06:44:29.903Z,68.08
2018-11-21T06:45:34.007Z,68.07
2018-11-21T06:46:38.130Z,68.16
2018-11-21T06:47:42.426Z,68.23
2018-11-21T06:48:47.016Z,68.35
2018-11-21T06:49:51.054Z,68.39
2018-11-21T06:50:55.360Z,68.36
2018-11-21T06:51:59.915Z,68.33
2018-11-21T06:53:04.213Z,68.30
2018-11-21T06:54:10.635Z,68.34
2018-11-21T06:55:14.751Z,68.42
2018-11-21T06:56:19.256Z,68.45
2018-11-21T06:57:23.277Z,68.49
2018-11-21T06:58:27.479Z,68.49
2018-11-21T06:59:31.575Z,68.50
2018-11-21T07:00:35.676Z,68.51
2018-11-21T07:01:39.678Z,68.59
2018-11-21T07:02:43.709Z,68.64
2018-11-21T07:03:47.788Z,68.70
2018-11-21T07:04:51.939Z,68.75
2018-11-21T07:05:55.987Z,68.78
2018-11-21T07:07:00.713Z,68.82
2018-11-21T07:08:04.684Z,68.82
2018-11-21T07:09:10.210Z,68.78
2018-11-21T07:10:15.335Z,68.75
2018-11-21T07:11:19.352Z,68.76
2018-11-21T07:12:23.655Z,68.83
2018-11-21T07:13:27.724Z,68.84
2018-11-21T07:14:32.236Z,68.81
2018-11-21T07:15:36.565Z,68.82
2018-11-21T07:16:41.101Z,68.85
2018-11-21T07:17:45.226Z,68.84
2018-11-21T07:18:55.506Z,68.86
2018-11-21T07:19:59.772Z,68.83
2018-11-21T07:21:03.861Z,68.84
2018-11-21T07:22:08.070Z,68.83
2018-11-21T07:23:12.099Z,68.80
2018-11-21T07:24:16.248Z,68.74
2018-11-21T07:25:21.840Z,68.72
2018-11-21T07:26:26.298Z,68.69
2018-11-21T07:27:30.660Z,68.67
2018-11-21T07:28:34.813Z,68.66
2018-11-21T07:29:39.131Z,68.64
2018-11-21T07:30:43.225Z,68.65
2018-11-21T07:31:47.249Z,68.64
2018-11-21T07:32:51.306Z,68.64
2018-11-21T07:33:55.329Z,68.64
2018-11-21T07:34:59.404Z,68.61
2018-11-21T07:36:03.705Z,68.65
2018-11-21T07:37:07.773Z,68.65
2018-11-21T07:38:11.809Z,68.67
2018-11-21T07:39:15.853Z,68.71
2018-11-21T07:40:19.916Z,68.72
2018-11-21T07:41:24.006Z,68.71
2018-11-21T07:42:28.122Z,68.72
2018-11-21T07:43:32.175Z,68.71
2018-11-21T07:44:36.208Z,68.72
2018-11-21T07:45:40.272Z,68.69
2018-11-21T07:46:44.373Z,68.69
2018-11-21T07:47:49.043Z,68.66
2018-11-21T07:48:53.067Z,68.67
2018-11-21T07:49:57.134Z,68.72
2018-11-21T07:51:02.432Z,68.75
2018-11-21T07:52:06.048Z,68.74
2018-11-21T07:53:10.152Z,68.75
2018-11-21T07:54:14.248Z,68.73
2018-11-21T07:55:18.267Z,68.74
2018-11-21T07:57:20.229Z,68.76
2018-11-21T07:58:25.494Z,68.75
2018-11-21T07:59:29.750Z,68.66
2018-11-21T08:01:30.643Z,68.68
2018-11-21T08:02:38.091Z,68.73
2018-11-21T08:03:44.322Z,68.67
2018-11-21T08:04:54.902Z,68.67
2018-11-21T08:06:05.229Z,68.69
2018-11-21T08:07:37.514Z,68.69
2018-11-21T08:09:06.494Z,68.72
2018-11-21T08:10:47.967Z,68.68
2018-11-21T08:12:10.033Z,68.67
2018-11-21T08:13:32.237Z,68.66
2018-11-21T08:14:54.815Z,68.69
2018-11-21T08:16:20.981Z,68.71
2018-11-21T08:17:53.756Z,68.77
2018-11-21T08:19:31.925Z,68.85
2018-11-21T08:20:58.082Z,68.85
2018-11-21T08:22:24.041Z,68.84
2018-11-21T08:23:36.850Z,68.81
2018-11-21T08:25:02.958Z,68.79
2018-11-21T08:26:35.071Z,68.80
2018-11-21T08:27:57.523Z,68.82
2018-11-21T08:29:01.703Z,68.81
2018-11-21T08:30:06.078Z,68.79
2018-11-21T08:31:10.495Z,68.81
2018-11-21T08:32:14.605Z,68.84
2018-11-21T08:33:18.752Z,68.87
2018-11-21T08:34:22.831Z,68.88
2018-11-21T08:35:26.855Z,68.87
2018-11-21T08:36:31.271Z,68.87
2018-11-21T08:37:35.488Z,68.85
2018-11-21T08:38:39.447Z,68.84
2018-11-21T08:39:43.472Z,68.84
2018-11-21T08:40:47.482Z,68.80
2018-11-21T08:41:51.957Z,68.75
2018-11-21T08:42:56.001Z,68.69
2018-11-21T08:44:00.207Z,68.67
2018-11-21T08:45:04.822Z,68.62
2018-11-21T08:46:10.178Z,68.62
2018-11-21T08:47:14.469Z,68.58
2018-11-21T08:48:19.279Z,68.54
2018-11-21T08:49:23.732Z,68.51
2018-11-21T08:50:27.751Z,68.47
2018-11-21T08:51:31.804Z,68.44
2018-11-21T08:52:36.128Z,68.41
2018-11-21T08:53:40.597Z,68.41
2018-11-21T08:54:44.827Z,68.36
2018-11-21T08:55:48.820Z,68.35
2018-11-21T08:56:52.921Z,68.35
2018-11-21T08:57:56.935Z,68.30
2018-11-21T08:59:01.108Z,68.29
2018-11-21T09:00:06.172Z,68.26
2018-11-21T09:01:10.552Z,68.22
2018-11-21T09:02:14.539Z,68.19
2018-11-21T09:03:18.670Z,68.16
2018-11-21T09:04:22.763Z,68.14
2018-11-21T09:05:26.978Z,68.11
2018-11-21T09:06:31.107Z,68.05
2018-11-21T09:07:35.503Z,68.01
2018-11-21T09:08:39.509Z,68.00
2018-11-21T09:09:43.589Z,67.95
2018-11-21T09:10:47.645Z,67.90
2018-11-21T09:11:51.938Z,67.88
2018-11-21T09:12:55.952Z,67.85
2018-11-21T09:14:00.030Z,67.78
2018-11-21T09:15:04.622Z,67.74
2018-11-21T09:16:08.654Z,67.67
2018-11-21T09:17:12.726Z,67.58
2018-11-21T09:18:16.781Z,67.55
2018-11-21T09:19:20.824Z,67.48
2018-11-21T09:20:24.912Z,67.43
2018-11-21T09:21:28.922Z,67.32
2018-11-21T09:22:33.010Z,67.29
2018-11-21T09:23:37.204Z,67.24
2018-11-21T09:24:41.142Z,67.21
2018-11-21T09:25:45.197Z,67.16
2018-11-21T09:26:49.242Z,67.10
2018-11-21T09:27:53.363Z,67.08
2018-11-21T09:28:57.771Z,67.04
2018-11-21T09:30:02.149Z,67.02
2018-11-21T09:31:06.242Z,67.01
2018-11-21T09:32:10.279Z,66.94
2018-11-21T09:33:14.330Z,66.94
2018-11-21T09:34:18.382Z,66.92
2018-11-21T09:35:22.372Z,66.86
2018-11-21T09:36:26.384Z,66.80
2018-11-21T09:37:30.760Z,66.75
2018-11-21T09:38:34.870Z,66.73
2018-11-21T09:39:38.857Z,66.70
2018-11-21T09:40:43.257Z,66.67
2018-11-21T09:41:47.264Z,66.64
2018-11-21T09:42:52.727Z,66.59
2018-11-21T09:43:56.886Z,66.53
2018-11-21T09:45:01.343Z,66.44
2018-11-21T09:46:05.615Z,66.39
2018-11-21T09:47:09.675Z,66.35
2018-11-21T09:48:13.800Z,66.27
2018-11-21T09:49:17.799Z,66.19
2018-11-21T09:50:32.010Z,66.15
2018-11-21T09:51:36.092Z,66.08
2018-11-21T09:52:40.547Z,66.02
2018-11-21T09:53:44.579Z,66.00
2018-11-21T09:54:48.666Z,65.95
2018-11-21T09:55:53.576Z,65.92
2018-11-21T09:56:57.633Z,65.89
2018-11-21T09:58:01.739Z,65.85
2018-11-21T09:59:05.750Z,65.81
2018-11-21T10:00:47.882Z,65.74
2018-11-21T10:02:28.905Z,65.67
2018-11-21T10:03:34.493Z,65.56
2018-11-21T10:04:38.636Z,65.50
2018-11-21T10:05:43.211Z,65.54
2018-11-21T10:06:47.318Z,65.56
2018-11-21T10:08:08.847Z,65.56
2018-11-21T10:09:15.341Z,65.54
2018-11-21T10:10:19.409Z,65.51
2018-11-21T10:11:23.416Z,65.44
2018-11-21T10:12:27.554Z,65.39
2018-11-21T10:13:31.851Z,65.34
2018-11-21T10:14:36.220Z,65.25
2018-11-21T10:15:40.274Z,65.23
2018-11-21T10:16:44.318Z,65.20
2018-11-21T10:17:48.356Z,65.13
2018-11-21T10:18:54.022Z,65.07
2018-11-21T10:19:58.035Z,65.02
2018-11-21T10:21:02.328Z,64.96
2018-11-21T10:22:06.383Z,64.87
2018-11-21T10:23:10.629Z,64.77
2018-11-21T10:24:14.678Z,64.74
2018-11-21T10:25:18.710Z,64.60
2018-11-21T10:26:22.819Z,64.54
2018-11-21T10:27:26.835Z,64.48
2018-11-21T10:28:30.884Z,64.39
2018-11-21T10:29:35.455Z,64.34
2018-11-21T10:30:39.225Z,64.34
2018-11-21T10:31:43.301Z,64.30
2018-11-21T10:32:47.334Z,64.27
2018-11-21T10:33:51.642Z,64.20
2018-11-21T10:34:55.823Z,64.14
2018-11-21T10:35:59.911Z,64.08
2018-11-21T10:37:04.229Z,64.05
2018-11-21T10:38:08.329Z,64.02
2018-11-21T10:39:12.510Z,64.03
2018-11-21T10:40:16.834Z,63.98
2018-11-21T10:41:21.026Z,63.96
2018-11-21T10:42:25.063Z,63.96
2018-11-21T10:43:29.488Z,63.93
2018-11-21T10:44:33.569Z,63.96
2018-11-21T10:45:37.655Z,63.94
2018-11-21T10:46:41.977Z,63.92
2018-11-21T10:49:27.661Z,63.86
2018-11-21T10:50:33.031Z,63.80
2018-11-21T10:51:38.315Z,63.73
2018-11-21T10:52:44.380Z,63.71
2018-11-21T10:53:49.849Z,63.68
2018-11-21T10:54:55.360Z,63.66
2018-11-21T10:56:00.713Z,63.69
2018-11-21T10:57:06.278Z,63.67
2018-11-21T10:58:12.531Z,63.65
2018-11-21T10:59:17.938Z,63.60
2018-11-21T11:00:41.207Z,63.56
2018-11-21T11:02:03.860Z,63.52
2018-11-21T11:03:11.583Z,63.44
2018-11-21T11:04:40.228Z,63.38
2018-11-21T11:06:04.152Z,63.31
2018-11-21T11:07:31.091Z,63.22
2018-11-21T11:08:54.116Z,63.13
2018-11-21T11:10:16.981Z,63.04
2018-11-21T11:11:50.192Z,62.92
2018-11-21T11:13:23.444Z,62.86
2018-11-21T11:15:06.025Z,62.75
2018-11-21T11:16:30.022Z,62.67
2018-11-21T11:17:52.823Z,62.57
2018-11-21T11:19:15.387Z,62.53
2018-11-21T11:20:39.399Z,62.48
2018-11-21T11:22:02.431Z,62.46
2018-11-21T11:23:21.054Z,62.43
2018-11-21T11:24:43.899Z,62.43
2018-11-21T11:26:23.210Z,62.39
2018-11-21T11:27:53.574Z,62.33
2018-11-21T11:29:21.686Z,62.25
2018-11-21T11:30:44.734Z,62.30
2018-11-21T11:32:08.795Z,62.27
2018-11-21T11:33:31.550Z,62.31
2018-11-21T11:35:04.722Z,62.32
2018-11-21T11:36:31.723Z,62.29
2018-11-21T11:37:55.732Z,62.31
2018-11-21T11:39:18.723Z,62.32
2018-11-21T11:40:48.311Z,62.32
2018-11-21T11:42:16.996Z,62.31
2018-11-21T11:43:39.989Z,62.35
2018-11-21T11:45:14.497Z,62.33
2018-11-21T11:46:37.859Z,62.31
2018-11-21T11:47:59.905Z,62.32
2018-11-21T11:49:27.402Z,62.29
2018-11-21T11:50:47.079Z,62.28
2018-11-21T11:52:11.596Z,62.27
2018-11-21T11:53:43.820Z,62.25
2018-11-21T11:55:13.653Z,62.21
2018-11-21T11:56:39.925Z,62.19
2018-11-21T11:58:00.021Z,62.13
2018-11-21T11:59:32.496Z,62.10
2018-11-21T12:01:05.803Z,62.02
2018-11-21T12:02:29.362Z,61.93
2018-11-21T12:03:57.745Z,61.85
2018-11-21T12:05:11.655Z,61.77
2018-11-21T12:06:34.219Z,61.68
2018-11-21T12:07:58.358Z,61.58
2018-11-21T12:09:29.347Z,61.48
2018-11-21T12:10:53.161Z,61.42
2018-11-21T12:12:26.617Z,61.35
2018-11-21T12:13:50.769Z,61.26
2018-11-21T12:15:20.620Z,61.24
2018-11-21T12:16:44.838Z,61.20
2018-11-21T12:18:12.373Z,61.22
2018-11-21T12:19:30.257Z,61.24
2018-11-21T12:20:54.293Z,61.19
2018-11-21T12:22:19.176Z,61.14
2018-11-21T12:23:41.655Z,61.08
2018-11-21T12:25:20.812Z,60.99
2018-11-21T12:26:51.618Z,60.97
2018-11-21T12:28:24.450Z,60.96
2018-11-21T12:29:51.533Z,60.94
2018-11-21T12:31:13.578Z,60.94
2018-11-21T12:32:40.337Z,60.87
2018-11-21T12:34:02.785Z,60.83
2018-11-21T12:35:43.132Z,60.81
2018-11-21T12:37:05.758Z,60.75
2018-11-21T12:38:20.525Z,60.73
2018-11-21T12:39:37.166Z,60.67
2018-11-21T12:41:03.959Z,60.71
2018-11-21T12:42:28.134Z,60.74
2018-11-21T12:43:49.930Z,60.70
2018-11-21T12:45:32.699Z,60.65
2018-11-21T12:47:15.103Z,60.65
2018-11-21T12:48:37.569Z,60.65
2018-11-21T12:50:19.973Z,60.62
2018-11-21T12:51:50.523Z,60.57
2018-11-21T12:53:20.492Z,60.59
2018-11-21T12:54:53.408Z,60.58
2018-11-21T12:56:26.466Z,60.57
2018-11-21T12:57:47.239Z,60.52
2018-11-21T12:59:09.918Z,60.54
2018-11-21T13:00:32.628Z,60.53
2018-11-21T13:01:57.043Z,60.49
2018-11-21T13:03:29.829Z,60.48
2018-11-21T13:04:56.397Z,60.46
2018-11-21T13:06:23.269Z,60.43
2018-11-21T13:07:46.513Z,60.42
2018-11-21T13:09:10.579Z,60.47
2018-11-21T13:10:37.820Z,60.47
2018-11-21T13:12:00.378Z,60.49
2018-11-21T13:13:30.261Z,60.51
2018-11-21T13:14:43.731Z,60.54
2018-11-21T13:16:26.057Z,60.55
2018-11-21T13:17:39.781Z,60.59
2018-11-21T13:19:02.847Z,60.63
2018-11-21T13:20:30.156Z,60.66
2018-11-21T13:21:46.962Z,60.67
2018-11-21T13:23:02.300Z,60.75
2018-11-21T13:24:19.162Z,60.80
2018-11-21T13:25:42.230Z,60.86
2018-11-21T13:27:04.945Z,60.88
2018-11-21T13:28:41.278Z,60.88
2018-11-21T13:30:04.261Z,60.88
2018-11-21T13:31:27.168Z,60.92
2018-11-21T13:32:50.282Z,60.96
2018-11-21T13:34:21.559Z,60.98
2018-11-21T13:35:42.210Z,61.03
2018-11-21T13:37:04.826Z,61.02
2018-11-21T13:38:31.631Z,61.03
2018-11-21T13:39:58.769Z,61.00
2018-11-21T13:41:34.879Z,61.00
2018-11-21T13:42:52.103Z,61.00
2018-11-21T13:44:15.194Z,61.02
2018-11-21T13:45:44.892Z,61.07
2018-11-21T13:47:08.875Z,61.10
2018-11-21T13:48:31.730Z,61.11
2018-11-21T13:50:08.036Z,61.13
2018-11-21T13:51:39.276Z,61.13
2018-11-21T13:53:03.452Z,61.17
2018-11-21T13:54:25.673Z,61.22
2018-11-21T13:55:31.003Z,61.25
2018-11-21T13:56:36.543Z,61.29
2018-11-21T13:57:41.928Z,61.33
2018-11-21T13:58:47.288Z,61.34
2018-11-21T13:59:52.631Z,61.37
2018-11-21T14:00:57.967Z,61.39
2018-11-21T14:02:03.494Z,61.40
2018-11-21T14:03:08.935Z,61.37
2018-11-21T14:04:14.171Z,61.35
2018-11-21T14:05:19.928Z,61.35
2018-11-21T14:06:25.209Z,61.30
2018-11-21T14:07:30.561Z,61.30
2018-11-21T14:08:35.909Z,61.29
2018-11-21T14:09:41.505Z,61.27
2018-11-21T14:10:46.734Z,61.23
2018-11-21T14:11:53.131Z,61.21
2018-11-21T14:12:58.446Z,61.18
2018-11-21T14:14:04.006Z,61.16
2018-11-21T14:15:10.396Z,61.15
2018-11-21T14:16:15.925Z,61.15
2018-11-21T14:17:27.606Z,61.16
2018-11-21T14:18:26.633Z,61.15
2018-11-21T14:19:32.051Z,61.18
2018-11-21T14:20:37.540Z,61.19
2018-11-21T14:21:42.855Z,61.20
2018-11-21T14:22:48.822Z,61.21
2018-11-21T14:23:54.460Z,61.21
2018-11-21T14:24:59.863Z,61.23
2018-11-21T14:26:05.050Z,61.23
2018-11-21T14:27:10.278Z,61.23
2018-11-21T14:28:15.628Z,61.27
2018-11-21T14:29:21.069Z,61.25
2018-11-21T14:30:26.526Z,61.22
2018-11-21T14:31:32.845Z,61.19
2018-11-21T14:32:38.258Z,61.16
2018-11-21T14:33:43.666Z,61.14
2018-11-21T14:34:49.027Z,61.13
2018-11-21T14:35:56.137Z,61.14
2018-11-21T14:37:00.013Z,61.16
2018-11-21T14:38:05.466Z,61.17
2018-11-21T14:39:12.483Z,61.15
2018-11-21T14:40:19.172Z,61.15
2018-11-21T14:41:24.613Z,61.19
2018-11-21T14:42:30.099Z,61.19
2018-11-21T14:43:35.437Z,61.23
2018-11-21T14:44:40.906Z,61.26
2018-11-21T14:45:46.130Z,61.26